Impacts TAF Board
For situational awareness. Not to be used for flight planning purposes.
IDs:

KDTW - Detroit Metro/Wayne, MI, US

Issued at 1300 UTC 10 Aug 2022
Updated at 1315 UTC 10 Aug 2022
Potential Impact None Slight Moderate High
Time1253Z 10/14Z 10/15Z 10/16Z 10/17Z 10/18Z 10/19Z 10/20Z 10/21Z 10/22Z 10/23Z 11/00Z 11/01Z 11/02Z>>
Type OBS PRVL
  [TEMP]  
PRVL PRVL PRVL PRVL PRVL PRVL PRVL PRVL PRVL PRVL PRVL PRVL
VIS 10 >6
  [>6]  
>6 >6 >6 >6 >6 >6 >6 >6 >6 >6 >6 >6
CIG 45 --
  [45]  
-- -- -- -- -- -- -- -- -- -- -- --
Cover BKN SCT
  [BKN]  
SCT SCT SCT SCT SCT SCT SCT SCT SCT SCT SCT SCT
FltCat VFR VFR
  [VFR]  
VFR VFR VFR VFR VFR VFR VFR VFR VFR VFR VFR VFR
WX -- --
  [--]  
-- -- -- -- -- -- -- -- -- -- -- --
WDir VRB 250
[250]
250 250 250 250 250 250 250 250 250 250 250 250
WSpd 0 6
  [6]  
6 6 6 6 6 6 6 6 6 6 6 6
WGst -- --
  [--]  
-- -- -- -- -- -- -- -- -- -- -- --
WSHgt -- --
[--]
-- -- -- -- -- -- -- -- -- -- -- --
WSDir -- --
[--]
-- -- -- -- -- -- -- -- -- -- -- --
WSSpd -- --
[--]
-- -- -- -- -- -- -- -- -- -- -- --
Raw TAF
KDTW 101300Z 1013/1118 25006KT P6SM SCT050
  TEMPO 1013/1015 BKN045
  FM110800 36008KT P6SM BKN045
  FM111300 35009KT P6SM SKC


Raw METAR
KDTW 101253Z 00000KT 10SM BKN045 BKN140 20/16 A3017 RMK AO2 SLP214 T02000161
KDTW 101153Z 04003KT 10SM SCT045 BKN140 BKN200 19/16 A3016 RMK AO2 SLP209 T01890156 10194 20178 53012
KDTW 101053Z 00000KT 10SM SCT026 BKN055 BKN200 18/15 A3014 RMK AO2 SLP203 T01830150

METAR Board
Radar Display
Forecast Discussion
For situational awareness. Not to be used for flight planning purposes.